createdAt,value
2018-12-17T00:01:29.277Z,-3
2018-12-17T00:06:29.338Z,-3.1
2018-12-17T00:11:29.483Z,-3.2
2018-12-17T00:16:29.287Z,-3.2
2018-12-17T00:21:29.349Z,-3.4
2018-12-17T00:26:29.338Z,-3.5
2018-12-17T00:31:29.331Z,-3.6
2018-12-17T00:36:29.338Z,-3.7
2018-12-17T00:41:29.353Z,-3.8
2018-12-17T00:46:29.364Z,-3.9
2018-12-17T00:51:29.352Z,-3.9
2018-12-17T00:56:29.344Z,-4
2018-12-17T01:01:29.366Z,-4.1
2018-12-17T01:06:29.364Z,-4.1
2018-12-17T01:11:29.360Z,-4.2
2018-12-17T01:16:29.355Z,-4.2
2018-12-17T01:21:29.363Z,-4.2
2018-12-17T01:26:29.366Z,-4.3
2018-12-17T01:31:30.863Z,-4.4
2018-12-17T01:36:30.861Z,-4.4
2018-12-17T01:41:30.861Z,-4.4
2018-12-17T01:46:30.887Z,-4.4
2018-12-17T01:51:30.892Z,-4.3
2018-12-17T01:56:30.874Z,-4.2
2018-12-17T02:01:30.891Z,-4.1
2018-12-17T02:06:30.890Z,-4
2018-12-17T02:11:30.880Z,-4
2018-12-17T02:16:30.992Z,-3.9
2018-12-17T02:21:30.987Z,-3.8
2018-12-17T02:26:30.999Z,-3.7
2018-12-17T02:31:30.999Z,-3.6
2018-12-17T02:36:31.004Z,-3.6
2018-12-17T02:41:31.009Z,-3.5
2018-12-17T02:46:30.998Z,-3.5
2018-12-17T02:51:30.987Z,-3.5
2018-12-17T02:56:30.989Z,-3.4
2018-12-17T03:01:31.011Z,-3.3
2018-12-17T03:06:31.032Z,-3.2
2018-12-17T03:26:50.669Z,-3.1
2018-12-17T03:31:50.693Z,-3
2018-12-17T03:36:50.680Z,-3
2018-12-17T03:41:50.674Z,-2.9
2018-12-17T03:46:51.715Z,-2.9
2018-12-17T03:51:50.760Z,-2.9
2018-12-17T03:56:50.681Z,-2.9
2018-12-17T04:01:50.654Z,-2.9
2018-12-17T04:06:50.701Z,-2.8
2018-12-17T04:11:50.686Z,-2.8
2018-12-17T04:16:50.682Z,-2.8
2018-12-17T04:21:50.698Z,-2.7
2018-12-17T04:26:50.697Z,-2.7
2018-12-17T04:31:50.752Z,-2.6
2018-12-17T04:36:50.720Z,-2.6
2018-12-17T04:41:50.696Z,-2.6
2018-12-17T04:46:50.694Z,-2.5
2018-12-17T04:51:50.718Z,-2.5
2018-12-17T04:56:50.665Z,-2.5
2018-12-17T05:01:50.713Z,-2.5
2018-12-17T05:06:50.725Z,-2.4
2018-12-17T05:11:50.689Z,-2.4
2018-12-17T05:16:50.733Z,-2.4
2018-12-17T05:21:50.724Z,-2.4
2018-12-17T05:26:50.720Z,-2.4
2018-12-17T05:31:50.759Z,-2.4
2018-12-17T05:36:50.696Z,-2.3
2018-12-17T05:41:50.747Z,-2.3
2018-12-17T05:46:50.746Z,-2.3
2018-12-17T05:51:50.734Z,-2.3
2018-12-17T05:56:50.744Z,-2.3
2018-12-17T06:01:50.745Z,-2.2
2018-12-17T06:06:50.756Z,-2.2
2018-12-17T06:11:50.750Z,-2.2
2018-12-17T06:16:50.762Z,-2.2
2018-12-17T06:21:50.749Z,-2.1
2018-12-17T06:26:50.745Z,-2.1
2018-12-17T06:31:50.887Z,-2.1
2018-12-17T06:36:50.762Z,-2.1
2018-12-17T06:41:50.754Z,-2.1
2018-12-17T06:46:50.772Z,-2.1
2018-12-17T06:51:50.910Z,-2.1
2018-12-17T06:56:50.781Z,-2.1
2018-12-17T07:01:50.788Z,-2.1
2018-12-17T07:06:50.772Z,-2.1
2018-12-17T07:11:50.784Z,-2.1
2018-12-17T07:16:50.761Z,-2.1
2018-12-17T07:21:50.794Z,-2.1
2018-12-17T07:26:50.764Z,-2
2018-12-17T07:31:50.792Z,-2
2018-12-17T07:36:50.977Z,-2
2018-12-17T07:41:50.772Z,-1.9
2018-12-17T07:46:50.798Z,-1.8
2018-12-17T07:51:50.967Z,-1.8
2018-12-17T07:56:51.015Z,-1.8
2018-12-17T08:01:51.052Z,-1.8
2018-12-17T08:06:53.793Z,-1.7
2018-12-17T08:11:50.841Z,-1.6
2018-12-17T08:16:50.814Z,-1.6
2018-12-17T08:21:50.808Z,-1.5
2018-12-17T08:26:50.813Z,-1.5
2018-12-17T08:31:50.821Z,-1.3
2018-12-17T08:36:50.762Z,-1.2
2018-12-17T08:41:50.768Z,-1.1
2018-12-17T08:46:50.834Z,-1
2018-12-17T08:51:50.824Z,-0.8
2018-12-17T08:56:50.813Z,-0.7
2018-12-17T09:01:50.836Z,-0.6
2018-12-17T09:06:50.820Z,-0.5
2018-12-17T09:11:50.825Z,-0.4
2018-12-17T09:16:50.849Z,-0.2
2018-12-17T09:21:50.834Z,0
2018-12-17T09:26:50.869Z,0
2018-12-17T09:31:50.841Z,0.2
2018-12-17T09:36:50.843Z,0.3
2018-12-17T09:41:50.963Z,0.4
2018-12-17T09:46:51.042Z,0.5
2018-12-17T09:51:50.870Z,0.6
2018-12-17T09:56:50.880Z,0.7
2018-12-17T10:01:50.870Z,0.8
2018-12-17T10:06:50.870Z,0.8
2018-12-17T10:11:50.862Z,0.9
2018-12-17T10:16:50.884Z,0.9
2018-12-17T10:21:50.886Z,1
2018-12-17T10:26:50.886Z,1.1
2018-12-17T10:31:50.886Z,1.2
2018-12-17T10:36:50.890Z,1.2
2018-12-17T10:41:50.874Z,1.3
2018-12-17T10:46:50.890Z,1.3
2018-12-17T10:51:51.093Z,1.3
2018-12-17T10:56:51.121Z,1.4
2018-12-17T11:01:50.897Z,1.4
2018-12-17T11:06:50.902Z,1.5
2018-12-17T11:11:51.115Z,1.3
2018-12-17T11:16:51.035Z,1.4
2018-12-17T11:21:50.898Z,1.4
2018-12-17T11:26:50.895Z,1.5
2018-12-17T11:31:50.915Z,1.5
2018-12-17T11:36:50.898Z,1.5
2018-12-17T11:41:51.140Z,1.5
2018-12-17T11:46:50.930Z,1.5
2018-12-17T11:51:50.920Z,1.4
2018-12-17T11:56:50.918Z,1.5
2018-12-17T12:01:50.920Z,1.4
2018-12-17T12:06:50.918Z,1.6
2018-12-17T12:11:50.910Z,1.6
2018-12-17T12:16:50.925Z,1.6
2018-12-17T12:21:50.935Z,1.6
2018-12-17T12:26:50.892Z,1.6
2018-12-17T12:31:50.882Z,1.6
2018-12-17T12:36:51.065Z,1.5
2018-12-17T12:41:51.095Z,1.6
2018-12-17T12:46:50.955Z,1.6
2018-12-17T12:51:52.674Z,1.6
2018-12-17T12:56:50.928Z,1.6
2018-12-17T13:01:50.969Z,1.7
2018-12-17T13:06:50.942Z,1.7
2018-12-17T13:11:51.069Z,1.8
2018-12-17T13:16:51.142Z,1.8
2018-12-17T13:21:50.962Z,1.9
2018-12-17T13:26:50.959Z,1.9
2018-12-17T13:31:50.978Z,1.9
2018-12-17T13:36:51.140Z,1.9
2018-12-17T13:41:50.974Z,1.8
2018-12-17T13:46:50.968Z,1.7
2018-12-17T13:51:51.132Z,1.7
2018-12-17T13:56:50.983Z,1.7
2018-12-17T14:01:51.533Z,1.7
2018-12-17T14:06:51.178Z,1.6
2018-12-17T14:11:50.995Z,1.6
2018-12-17T14:16:51.144Z,1.6
2018-12-17T14:21:50.998Z,1.5
2018-12-17T14:26:51.003Z,1.5
2018-12-17T14:31:51.003Z,1.4
2018-12-17T14:36:51.167Z,1.4
2018-12-17T14:41:50.998Z,1.3
2018-12-17T14:46:50.994Z,1.3
2018-12-17T14:51:51.023Z,1.2
2018-12-17T14:56:51.021Z,1.2
2018-12-17T15:01:51.258Z,1.2
2018-12-17T15:06:50.988Z,1.1
2018-12-17T15:11:51.005Z,1.1
2018-12-17T15:16:51.033Z,1.1
2018-12-17T15:21:51.166Z,1.1
2018-12-17T15:26:51.019Z,1
2018-12-17T15:31:51.039Z,1
2018-12-17T15:36:51.168Z,1
2018-12-17T15:41:51.025Z,0.9
2018-12-17T15:46:51.045Z,0.9
2018-12-17T15:51:51.052Z,0.9
2018-12-17T15:56:51.030Z,0.9
2018-12-17T16:01:51.044Z,0.8
2018-12-17T16:06:51.014Z,0.8
2018-12-17T16:11:51.056Z,0.8
2018-12-17T16:16:51.050Z,0.8
2018-12-17T16:21:51.051Z,0.8
2018-12-17T16:26:51.059Z,0.8
2018-12-17T16:31:57.078Z,0.8
2018-12-17T16:36:51.079Z,0.8
2018-12-17T16:41:51.072Z,0.8
2018-12-17T16:46:51.055Z,0.7
2018-12-17T16:51:51.083Z,0.7
2018-12-17T16:56:51.073Z,0.7
2018-12-17T17:01:51.077Z,0.7
2018-12-17T17:06:51.085Z,0.7
2018-12-17T17:11:51.093Z,0.7
2018-12-17T17:16:51.031Z,0.6
2018-12-17T17:21:51.090Z,0.6
2018-12-17T17:26:51.075Z,0.6
2018-12-17T17:31:51.074Z,0.6
2018-12-17T17:36:51.079Z,0.6
2018-12-17T17:41:51.106Z,0.6
2018-12-17T17:46:51.092Z,0.6
2018-12-17T17:51:51.110Z,0.5
2018-12-17T17:56:51.105Z,0.5
2018-12-17T18:01:51.126Z,0.5
2018-12-17T18:06:51.126Z,0.5
2018-12-17T18:11:51.131Z,0.5
2018-12-17T18:16:51.113Z,0.5
2018-12-17T18:21:51.131Z,0.4
2018-12-17T18:26:51.118Z,0.4
2018-12-17T18:31:51.153Z,0.4
2018-12-17T18:36:51.125Z,0.4
2018-12-17T18:41:51.112Z,0.4
2018-12-17T18:46:51.148Z,0.4
2018-12-17T18:51:51.137Z,0.4
2018-12-17T18:56:51.140Z,0.3
2018-12-17T19:01:51.163Z,0.3
2018-12-17T19:06:51.088Z,0.3
2018-12-17T19:11:51.150Z,0.2
2018-12-17T19:16:51.249Z,0.1
2018-12-17T19:21:52.360Z,0.1
2018-12-17T19:26:51.342Z,0
2018-12-17T19:31:51.197Z,0
2018-12-17T19:36:51.294Z,-0.1
2018-12-17T19:41:54.337Z,-0.1
2018-12-17T19:46:51.203Z,-0.2
2018-12-17T19:51:51.466Z,-0.2
2018-12-17T19:56:51.576Z,-0.2
2018-12-17T20:01:51.204Z,-0.3
2018-12-17T20:06:54.137Z,-0.4
2018-12-17T20:11:51.438Z,-0.4
2018-12-17T20:16:51.198Z,-0.4
2018-12-17T20:22:00.163Z,-0.3
2018-12-17T20:26:51.193Z,-0.3
2018-12-17T20:31:51.305Z,-0.3
2018-12-17T20:36:51.211Z,-0.2
2018-12-17T20:41:51.175Z,-0.2
2018-12-17T20:46:51.183Z,-0.1
2018-12-17T20:51:51.202Z,-0.1
2018-12-17T20:56:51.203Z,-0.1
2018-12-17T21:01:51.228Z,-0.1
2018-12-17T21:06:51.233Z,-0.1
2018-12-17T21:11:52.534Z,-0.1
2018-12-17T21:16:51.216Z,-0.1
2018-12-17T21:21:51.226Z,0
2018-12-17T21:26:51.210Z,0
2018-12-17T21:31:51.390Z,0
2018-12-17T21:36:51.618Z,0
2018-12-17T21:41:51.231Z,0
2018-12-17T21:46:51.233Z,0
2018-12-17T21:51:51.218Z,0
2018-12-17T21:56:51.228Z,0
2018-12-17T22:01:51.333Z,0
2018-12-17T22:06:51.378Z,0.1
2018-12-17T22:11:51.445Z,0.1
2018-12-17T22:16:51.290Z,0.1
2018-12-17T22:21:51.244Z,0.2
2018-12-17T22:26:51.252Z,0.2
2018-12-17T22:31:51.244Z,0.2
2018-12-17T22:36:51.234Z,0.2
2018-12-17T22:41:51.258Z,0.2
2018-12-17T22:46:51.258Z,0.2
2018-12-17T22:51:51.248Z,0.3
2018-12-17T22:56:51.266Z,0.3
2018-12-17T23:01:51.271Z,0.3
2018-12-17T23:06:51.262Z,0.3
2018-12-17T23:11:51.267Z,0.4
2018-12-17T23:16:51.261Z,0.4
2018-12-17T23:21:51.265Z,0.4
2018-12-17T23:26:51.266Z,0.4
2018-12-17T23:31:51.258Z,0.5
2018-12-17T23:36:51.277Z,0.5
2018-12-17T23:41:51.253Z,0.5
2018-12-17T23:46:51.272Z,0.5
2018-12-17T23:51:51.280Z,0.5
2018-12-17T23:56:51.275Z,0.6
